createdAt,value
2018-12-29T00:00:04.942Z,24.80
2018-12-29T00:01:04.886Z,26.70
2018-12-29T00:02:04.877Z,23.80
2018-12-29T00:03:04.865Z,26.30
2018-12-29T00:04:04.856Z,24.60
2018-12-29T00:05:04.847Z,24.10
2018-12-29T00:06:04.875Z,24.30
2018-12-29T00:07:05.884Z,24.60
2018-12-29T00:08:04.813Z,25.40
2018-12-29T00:09:04.803Z,23.40
2018-12-29T00:10:04.834Z,22.90
2018-12-29T00:11:04.784Z,25.00
2018-12-29T00:12:04.821Z,23.40
2018-12-29T00:13:04.756Z,25.30
2018-12-29T00:14:04.748Z,23.50
2018-12-29T00:15:04.779Z,26.90
2018-12-29T00:16:04.755Z,25.00
2018-12-29T00:17:04.721Z,26.10
2018-12-29T00:18:04.766Z,25.00
2018-12-29T00:19:04.692Z,24.80
2018-12-29T00:20:04.723Z,26.90
2018-12-29T00:21:04.668Z,28.00
2018-12-29T00:22:04.660Z,23.40
2018-12-29T00:23:04.653Z,25.80
2018-12-29T00:24:04.639Z,22.80
2018-12-29T00:25:04.633Z,25.60
2018-12-29T00:26:04.660Z,23.80
2018-12-29T00:27:04.602Z,24.90
2018-12-29T00:28:04.598Z,25.50
2018-12-29T00:29:04.583Z,26.40
2018-12-29T00:30:04.571Z,25.10
2018-12-29T00:31:04.559Z,24.20
2018-12-29T00:32:04.593Z,24.40
2018-12-29T00:33:04.537Z,23.00
2018-12-29T00:34:04.524Z,24.80
2018-12-29T00:35:04.518Z,25.00
2018-12-29T00:36:04.547Z,24.40
2018-12-29T00:37:04.495Z,26.20
2018-12-29T00:38:04.545Z,24.10
2018-12-29T00:39:04.475Z,25.40
2018-12-29T00:40:04.464Z,23.60
2018-12-29T00:41:04.455Z,24.70
2018-12-29T00:42:04.441Z,24.40
2018-12-29T00:43:04.436Z,25.40
2018-12-29T00:44:04.470Z,25.40
2018-12-29T00:45:04.450Z,23.60
2018-12-29T00:46:04.398Z,24.20
2018-12-29T00:47:04.394Z,26.00
2018-12-29T00:48:04.387Z,25.80
2018-12-29T00:49:04.386Z,25.70
2018-12-29T00:50:04.355Z,24.60
2018-12-29T00:51:04.381Z,25.70
2018-12-29T00:52:04.329Z,25.60
2018-12-29T00:53:04.322Z,25.20
2018-12-29T00:54:04.315Z,22.40
2018-12-29T00:55:04.302Z,24.80
2018-12-29T00:56:04.325Z,24.00
2018-12-29T00:57:04.275Z,24.50
2018-12-29T00:58:04.265Z,25.60
2018-12-29T00:59:04.259Z,26.10
2018-12-29T01:00:04.285Z,27.40
2018-12-29T01:01:04.237Z,26.50
2018-12-29T01:02:04.232Z,25.90
2018-12-29T01:03:04.210Z,23.40
2018-12-29T01:04:04.202Z,23.00
2018-12-29T01:05:04.190Z,25.40
2018-12-29T01:06:04.239Z,24.50
2018-12-29T01:07:04.167Z,25.30
2018-12-29T01:08:04.201Z,25.40
2018-12-29T01:09:04.148Z,25.90
2018-12-29T01:10:04.134Z,23.70
2018-12-29T01:11:04.125Z,24.30
2018-12-29T01:12:04.153Z,25.40
2018-12-29T01:13:04.143Z,25.00
2018-12-29T01:14:04.092Z,24.50
2018-12-29T01:15:09.871Z,23.70
2018-12-29T01:16:05.072Z,26.90
2018-12-29T01:17:04.066Z,25.40
2018-12-29T01:18:04.049Z,26.40
2018-12-29T01:19:04.075Z,25.30
2018-12-29T01:20:04.030Z,26.40
2018-12-29T01:21:04.017Z,26.20
2018-12-29T01:22:04.006Z,25.30
2018-12-29T01:23:03.992Z,25.70
2018-12-29T01:24:03.985Z,26.30
2018-12-29T01:25:04.022Z,23.60
2018-12-29T01:26:03.958Z,24.30
2018-12-29T01:27:03.948Z,24.80
2018-12-29T01:28:03.945Z,24.80
2018-12-29T01:29:03.970Z,23.10
2018-12-29T01:30:03.919Z,25.10
2018-12-29T01:31:03.908Z,24.60
2018-12-29T01:32:03.901Z,24.90
2018-12-29T01:33:03.885Z,25.50
2018-12-29T01:34:03.920Z,25.70
2018-12-29T01:35:03.864Z,23.30
2018-12-29T01:36:03.882Z,25.90
2018-12-29T01:37:03.870Z,24.30
2018-12-29T01:38:03.831Z,25.40
2018-12-29T01:39:03.825Z,24.10
2018-12-29T01:40:03.854Z,24.60
2018-12-29T01:41:03.797Z,24.70
2018-12-29T01:42:03.790Z,24.80
2018-12-29T01:43:03.775Z,24.30
2018-12-29T01:44:03.810Z,25.90
2018-12-29T01:45:03.755Z,24.70
2018-12-29T01:46:03.787Z,24.90
2018-12-29T01:47:03.732Z,26.00
2018-12-29T01:48:03.722Z,23.50
2018-12-29T01:49:03.709Z,23.30
2018-12-29T01:50:03.701Z,24.90
2018-12-29T01:51:03.714Z,25.80
2018-12-29T01:52:03.719Z,26.10
2018-12-29T01:53:03.705Z,23.70
2018-12-29T01:54:03.657Z,22.20
2018-12-29T01:55:03.644Z,23.40
2018-12-29T01:56:03.639Z,24.00
2018-12-29T01:57:03.669Z,24.80
2018-12-29T01:58:03.618Z,23.00
2018-12-29T01:59:03.601Z,26.60
2018-12-29T02:00:03.592Z,24.10
2018-12-29T02:01:03.624Z,25.20
2018-12-29T02:02:03.574Z,22.70
2018-12-29T02:03:03.557Z,23.80
2018-12-29T02:04:03.590Z,23.10
2018-12-29T02:05:03.541Z,24.50
2018-12-29T02:06:03.525Z,23.70
2018-12-29T02:07:03.556Z,24.40
2018-12-29T02:08:03.503Z,23.60
2018-12-29T02:09:03.495Z,22.80
2018-12-29T02:10:03.488Z,23.80
2018-12-29T02:11:03.472Z,23.40
2018-12-29T02:12:03.470Z,24.10
2018-12-29T02:13:03.731Z,23.50
2018-12-29T02:14:03.437Z,21.00
2018-12-29T02:15:03.438Z,23.40
2018-12-29T02:16:03.415Z,23.40
2018-12-29T02:17:03.404Z,23.70
2018-12-29T02:18:03.394Z,25.30
2018-12-29T02:19:03.424Z,24.70
2018-12-29T02:20:03.391Z,24.40
2018-12-29T02:21:03.363Z,23.00
2018-12-29T02:22:03.352Z,26.50
2018-12-29T02:23:03.346Z,24.30
2018-12-29T02:24:03.346Z,23.30
2018-12-29T02:25:03.357Z,23.70
2018-12-29T02:26:03.312Z,23.50
2018-12-29T02:27:03.341Z,24.40
2018-12-29T02:28:03.290Z,22.20
2018-12-29T02:29:03.275Z,23.40
2018-12-29T02:30:03.271Z,24.00
2018-12-29T02:31:03.255Z,23.60
2018-12-29T02:32:03.242Z,25.00
2018-12-29T02:33:03.281Z,25.50
2018-12-29T02:34:03.220Z,24.10
2018-12-29T02:35:03.210Z,25.40
2018-12-29T02:36:03.215Z,25.00
2018-12-29T02:37:03.188Z,24.10
2018-12-29T02:38:03.177Z,24.70
2018-12-29T02:39:03.210Z,24.40
2018-12-29T02:40:03.158Z,23.90
2018-12-29T02:41:03.146Z,23.70
2018-12-29T02:42:03.139Z,23.70
2018-12-29T02:43:03.151Z,24.80
2018-12-29T02:44:03.116Z,25.30
2018-12-29T02:45:03.140Z,23.90
2018-12-29T02:46:03.132Z,24.70
2018-12-29T02:47:03.080Z,23.10
2018-12-29T02:48:03.069Z,23.60
2018-12-29T02:49:03.062Z,23.50
2018-12-29T02:50:03.056Z,23.70
2018-12-29T02:51:03.036Z,24.00
2018-12-29T02:52:03.070Z,25.00
2018-12-29T02:53:03.014Z,24.50
2018-12-29T02:54:03.011Z,23.20
2018-12-29T02:55:02.991Z,24.00
2018-12-29T02:56:03.058Z,25.40
2018-12-29T02:57:03.009Z,23.60
2018-12-29T02:58:02.956Z,23.00
2018-12-29T02:59:02.951Z,24.60
2018-12-29T03:00:02.977Z,25.70
2018-12-29T03:01:02.924Z,22.70
2018-12-29T03:02:02.921Z,25.90
2018-12-29T03:03:02.933Z,25.60
2018-12-29T03:04:02.901Z,23.90
2018-12-29T03:05:02.887Z,24.70
2018-12-29T03:06:02.874Z,26.70
2018-12-29T03:07:02.861Z,23.10
2018-12-29T03:08:02.881Z,24.40
2018-12-29T03:09:02.838Z,25.30
2018-12-29T03:10:02.829Z,24.80
2018-12-29T03:11:02.818Z,23.50
2018-12-29T03:12:02.841Z,25.70
2018-12-29T03:13:02.831Z,24.50
2018-12-29T03:14:02.783Z,25.40
2018-12-29T03:15:02.778Z,25.40
2018-12-29T03:16:02.770Z,24.90
2018-12-29T03:17:02.752Z,26.50
2018-12-29T03:18:02.774Z,26.00
2018-12-29T03:19:02.770Z,24.50
2018-12-29T03:20:02.721Z,25.90
2018-12-29T03:21:02.743Z,25.20
2018-12-29T03:22:02.700Z,26.60
2018-12-29T03:23:02.687Z,26.60
2018-12-29T03:24:02.675Z,22.70
2018-12-29T03:25:02.674Z,26.50
2018-12-29T03:26:02.654Z,24.10
2018-12-29T03:27:02.674Z,26.30
2018-12-29T03:28:02.666Z,26.00
2018-12-29T03:29:02.663Z,25.90
2018-12-29T03:30:02.614Z,26.00
2018-12-29T03:31:02.669Z,25.40
2018-12-29T03:32:02.587Z,25.60
2018-12-29T03:33:02.608Z,25.10
2018-12-29T03:34:02.572Z,26.50
2018-12-29T03:35:02.589Z,25.90
2018-12-29T03:36:02.587Z,25.60
2018-12-29T03:37:02.536Z,24.50
2018-12-29T03:38:02.522Z,25.80
2018-12-29T03:39:02.511Z,26.10
2018-12-29T03:40:02.521Z,26.20
2018-12-29T03:41:02.498Z,26.70
2018-12-29T03:42:02.517Z,26.70
2018-12-29T03:43:02.506Z,26.40
2018-12-29T03:44:02.464Z,26.10
2018-12-29T03:45:02.453Z,26.70
2018-12-29T03:46:02.433Z,27.10
2018-12-29T03:47:02.424Z,26.90
2018-12-29T03:48:02.424Z,27.00
2018-12-29T03:49:02.664Z,27.70
2018-12-29T03:50:02.392Z,28.00
2018-12-29T03:51:02.383Z,29.30
2018-12-29T03:52:02.370Z,27.80
2018-12-29T03:53:02.365Z,30.90
2018-12-29T03:54:02.348Z,28.20
2018-12-29T03:55:02.371Z,30.70
2018-12-29T03:56:02.327Z,28.70
2018-12-29T03:57:02.323Z,28.50
2018-12-29T03:58:02.307Z,29.90
2018-12-29T03:59:02.306Z,29.50
2018-12-29T04:00:02.283Z,32.00
2018-12-29T04:01:02.304Z,31.20
2018-12-29T04:02:02.265Z,31.60
2018-12-29T04:03:02.258Z,32.00
2018-12-29T04:04:02.275Z,33.20
2018-12-29T04:05:02.230Z,33.00
2018-12-29T04:06:02.258Z,33.90
2018-12-29T04:07:02.224Z,32.60
2018-12-29T04:08:02.194Z,34.80
2018-12-29T04:09:02.230Z,33.20
2018-12-29T04:10:02.173Z,32.00
2018-12-29T04:11:02.163Z,31.60
2018-12-29T04:12:02.186Z,32.50
2018-12-29T04:13:02.140Z,34.80
2018-12-29T04:14:02.130Z,33.50
2018-12-29T04:15:02.185Z,34.40
2018-12-29T04:16:02.109Z,36.80
2018-12-29T04:17:02.097Z,34.10
2018-12-29T04:18:02.128Z,34.20
2018-12-29T04:19:02.083Z,35.30
2018-12-29T04:20:02.068Z,36.50
2018-12-29T04:21:02.070Z,33.00
2018-12-29T04:22:02.047Z,32.50
2018-12-29T04:23:02.032Z,31.70
2018-12-29T04:24:02.062Z,33.10
2018-12-29T04:25:02.016Z,34.70
2018-12-29T04:26:01.997Z,36.10
2018-12-29T04:27:01.996Z,35.90
2018-12-29T04:28:01.979Z,34.30
2018-12-29T04:29:01.970Z,32.90
2018-12-29T04:30:02.012Z,39.20
2018-12-29T04:31:01.947Z,34.10
2018-12-29T04:32:01.977Z,35.40
2018-12-29T04:33:01.921Z,36.50
2018-12-29T04:34:01.941Z,35.50
2018-12-29T04:35:01.899Z,38.50
2018-12-29T04:36:01.890Z,38.60
2018-12-29T04:37:01.886Z,38.60
2018-12-29T04:38:01.867Z,38.40
2018-12-29T04:39:01.888Z,40.80
2018-12-29T04:40:01.853Z,39.00
2018-12-29T04:41:01.835Z,39.10
2018-12-29T04:42:01.827Z,38.40
2018-12-29T04:43:01.846Z,40.80
2018-12-29T04:44:01.809Z,40.30
2018-12-29T04:45:01.797Z,37.70
2018-12-29T04:46:05.242Z,43.30
2018-12-29T04:47:01.773Z,35.80
2018-12-29T04:48:01.762Z,37.40
2018-12-29T04:49:01.779Z,36.50
2018-12-29T04:50:01.780Z,36.80
2018-12-29T04:51:01.734Z,41.00
2018-12-29T04:52:01.727Z,42.10
2018-12-29T04:53:01.714Z,38.70
2018-12-29T04:54:01.695Z,43.10
2018-12-29T04:55:01.682Z,41.60
2018-12-29T04:56:01.731Z,41.70
2018-12-29T04:57:01.664Z,39.10
2018-12-29T04:58:01.656Z,40.40
2018-12-29T04:59:01.637Z,37.30
2018-12-29T05:00:01.634Z,32.80
2018-12-29T05:01:01.662Z,41.80
2018-12-29T05:02:01.636Z,35.70
2018-12-29T05:03:01.625Z,41.40
2018-12-29T05:04:01.587Z,41.70
2018-12-29T05:05:01.587Z,39.80
2018-12-29T05:06:01.606Z,35.30
2018-12-29T05:07:01.552Z,41.30
2018-12-29T05:08:01.544Z,39.00
2018-12-29T05:09:01.541Z,38.60
2018-12-29T05:10:01.535Z,38.80
2018-12-29T05:11:01.530Z,39.80
2018-12-29T05:12:01.535Z,40.80
2018-12-29T05:13:01.494Z,36.30
2018-12-29T05:14:01.481Z,40.10
2018-12-29T05:15:01.481Z,40.20
2018-12-29T05:16:01.517Z,39.80
2018-12-29T05:17:01.449Z,39.60
2018-12-29T05:18:01.473Z,38.10
2018-12-29T05:19:01.441Z,44.10
2018-12-29T05:20:01.435Z,39.90
2018-12-29T05:21:01.408Z,44.20
2018-12-29T05:22:01.393Z,39.40
2018-12-29T05:23:01.411Z,36.30
2018-12-29T05:24:01.378Z,41.10
2018-12-29T05:25:01.359Z,39.60
2018-12-29T05:26:01.390Z,38.00
2018-12-29T05:27:01.335Z,39.50
2018-12-29T05:28:01.352Z,42.40
2018-12-29T05:29:01.359Z,37.60
2018-12-29T05:30:01.331Z,39.80
2018-12-29T05:31:01.353Z,39.70
2018-12-29T05:32:01.278Z,36.30
2018-12-29T05:33:01.269Z,38.80
2018-12-29T05:34:01.262Z,41.90
2018-12-29T05:35:01.342Z,42.10
2018-12-29T05:36:01.302Z,41.20
2018-12-29T05:37:01.224Z,42.30
2018-12-29T05:38:01.213Z,42.60
2018-12-29T05:39:01.204Z,40.30
2018-12-29T05:40:01.200Z,39.60
2018-12-29T05:41:01.228Z,40.50
2018-12-29T05:42:01.171Z,40.70
2018-12-29T05:43:01.162Z,41.00
2018-12-29T05:44:01.152Z,39.50
2018-12-29T05:45:01.138Z,42.60
2018-12-29T05:46:01.160Z,45.00
2018-12-29T05:47:01.126Z,43.00
2018-12-29T05:48:01.106Z,41.10
2018-12-29T05:49:01.095Z,41.80
2018-12-29T05:50:01.089Z,43.00
2018-12-29T05:51:01.079Z,41.60
2018-12-29T05:52:01.099Z,46.10
2018-12-29T05:53:01.086Z,40.40
2018-12-29T05:54:01.044Z,41.90
2018-12-29T05:55:01.029Z,45.20
2018-12-29T05:56:01.026Z,39.40
2018-12-29T05:57:01.009Z,39.50
2018-12-29T05:58:01.029Z,41.90
2018-12-29T05:59:00.987Z,44.40
2018-12-29T06:00:00.992Z,41.40
2018-12-29T06:01:01.006Z,41.90
2018-12-29T06:02:00.962Z,42.80
2018-12-29T06:03:00.952Z,43.70
2018-12-29T06:04:00.938Z,42.10
2018-12-29T06:05:00.929Z,41.80
2018-12-29T06:06:00.909Z,42.60
2018-12-29T06:07:00.981Z,44.90
2018-12-29T06:08:00.921Z,43.60
2018-12-29T06:09:00.912Z,42.10
2018-12-29T06:10:00.877Z,41.60
2018-12-29T06:11:00.861Z,46.30
2018-12-29T06:12:00.848Z,43.20
2018-12-29T06:13:00.852Z,43.60
2018-12-29T06:14:00.826Z,42.40
2018-12-29T06:15:00.850Z,43.30
2018-12-29T06:16:00.804Z,45.20
2018-12-29T06:17:00.793Z,43.80
2018-12-29T06:18:00.785Z,38.80
2018-12-29T06:19:00.766Z,41.60
2018-12-29T06:20:00.757Z,41.90
2018-12-29T06:21:00.788Z,42.60
2018-12-29T06:22:00.741Z,43.00
2018-12-29T06:23:00.732Z,37.30
2018-12-29T06:24:00.715Z,44.20
2018-12-29T06:25:00.722Z,44.40
2018-12-29T06:26:00.707Z,46.30
2018-12-29T06:27:00.716Z,42.30
2018-12-29T06:28:00.673Z,43.50
2018-12-29T06:29:00.676Z,45.10
2018-12-29T06:30:00.653Z,43.20
2018-12-29T06:31:00.640Z,41.00
2018-12-29T06:32:00.629Z,42.50
2018-12-29T06:33:00.652Z,44.00
2018-12-29T06:34:00.607Z,42.80
2018-12-29T06:35:00.623Z,44.30
2018-12-29T06:36:00.592Z,44.70
2018-12-29T06:37:00.607Z,45.10
2018-12-29T06:38:00.588Z,42.10
2018-12-29T06:39:00.570Z,41.80
2018-12-29T06:40:00.585Z,44.90
2018-12-29T06:41:00.529Z,42.00
2018-12-29T06:42:00.596Z,43.40
2018-12-29T06:43:00.536Z,42.70
2018-12-29T06:44:00.499Z,40.90
2018-12-29T06:45:00.486Z,42.20
2018-12-29T06:46:00.482Z,42.30
2018-12-29T06:47:00.507Z,44.40
2018-12-29T06:48:00.453Z,43.70
2018-12-29T06:49:00.440Z,44.80
2018-12-29T06:50:00.437Z,39.10
2018-12-29T06:51:00.430Z,39.20
2018-12-29T06:52:00.409Z,44.60
2018-12-29T06:53:00.438Z,41.80
2018-12-29T06:54:00.386Z,40.80
2018-12-29T06:55:00.387Z,44.10
2018-12-29T06:56:00.371Z,42.20
2018-12-29T06:57:00.379Z,41.40
2018-12-29T06:58:00.343Z,40.80
2018-12-29T06:59:00.372Z,43.20
2018-12-29T07:00:00.358Z,45.00
2018-12-29T07:01:00.311Z,42.70
2018-12-29T07:02:00.301Z,44.60
2018-12-29T07:03:00.307Z,42.90
2018-12-29T07:04:00.293Z,44.20
2018-12-29T07:05:00.313Z,41.60
2018-12-29T07:06:00.264Z,41.00
2018-12-29T07:07:00.250Z,38.50
2018-12-29T07:08:00.242Z,42.60
2018-12-29T07:09:00.250Z,37.70
2018-12-29T07:10:00.278Z,39.40
2018-12-29T07:11:00.208Z,40.90
2018-12-29T07:12:00.203Z,42.20
2018-12-29T07:13:00.216Z,41.80
2018-12-29T07:14:00.176Z,42.00
2018-12-29T07:15:00.240Z,41.50
2018-12-29T07:16:00.164Z,41.60
2018-12-29T07:17:00.138Z,43.20
2018-12-29T07:18:00.130Z,45.90
2018-12-29T07:19:00.123Z,44.60
2018-12-29T07:20:00.164Z,42.40
2018-12-29T07:21:00.135Z,40.40
2018-12-29T07:22:00.078Z,45.50
2018-12-29T07:23:00.079Z,39.80
2018-12-29T07:24:00.074Z,38.80
2018-12-29T07:25:00.048Z,39.70
2018-12-29T07:26:00.061Z,41.10
2018-12-29T07:27:00.080Z,39.20
2018-12-29T07:28:00.029Z,39.20
2018-12-29T07:29:00.007Z,37.30
2018-12-29T07:30:00.013Z,37.20
2018-12-29T07:30:59.985Z,39.50
2018-12-29T07:31:59.987Z,36.10
2018-12-29T07:32:59.990Z,39.00
2018-12-29T07:33:59.955Z,36.80
2018-12-29T07:34:59.970Z,40.10
2018-12-29T07:35:59.929Z,38.30
2018-12-29T07:36:59.957Z,42.00
2018-12-29T07:37:59.910Z,40.00
2018-12-29T07:38:59.904Z,39.00
2018-12-29T07:39:59.923Z,37.00
2018-12-29T07:40:59.906Z,39.10
2018-12-29T07:41:59.876Z,38.00
2018-12-29T07:42:59.861Z,37.40
2018-12-29T07:43:59.843Z,40.10
2018-12-29T07:44:59.867Z,41.40
2018-12-29T07:45:59.822Z,37.90
2018-12-29T07:46:59.833Z,35.10
2018-12-29T07:47:59.802Z,38.80
2018-12-29T07:48:59.809Z,35.60
2018-12-29T07:49:59.778Z,40.40
2018-12-29T07:50:59.809Z,39.50
2018-12-29T07:51:59.756Z,40.00
2018-12-29T07:52:59.765Z,39.50
2018-12-29T07:53:59.746Z,39.30
2018-12-29T07:54:59.725Z,38.90
2018-12-29T07:55:59.723Z,40.00
2018-12-29T07:56:59.736Z,42.70
2018-12-29T07:57:59.694Z,36.20
2018-12-29T07:58:59.693Z,41.30
2018-12-29T07:59:59.673Z,41.30
2018-12-29T08:00:59.669Z,39.40
2018-12-29T08:01:59.652Z,37.20
2018-12-29T08:02:59.666Z,39.70
2018-12-29T08:03:59.627Z,40.50
2018-12-29T08:04:59.621Z,38.70
2018-12-29T08:05:59.619Z,40.30
2018-12-29T08:06:59.597Z,39.30
2018-12-29T08:07:59.632Z,40.50
2018-12-29T08:08:59.576Z,37.80
2018-12-29T08:09:59.567Z,36.00
2018-12-29T08:10:59.554Z,38.60
2018-12-29T08:11:59.544Z,38.10
2018-12-29T08:12:59.533Z,37.40
2018-12-29T08:13:59.555Z,41.80
2018-12-29T08:14:59.509Z,42.50
2018-12-29T08:15:59.501Z,42.10
2018-12-29T08:16:59.486Z,39.80
2018-12-29T08:17:59.508Z,40.80
2018-12-29T08:18:59.502Z,38.70
2018-12-29T08:19:59.452Z,39.50
2018-12-29T08:20:59.445Z,39.80
2018-12-29T08:21:59.469Z,39.30
2018-12-29T08:22:59.427Z,42.50
2018-12-29T08:23:59.446Z,42.00
2018-12-29T08:24:59.404Z,40.10
2018-12-29T08:25:59.404Z,39.40
2018-12-29T08:26:59.379Z,39.50
2018-12-29T08:27:59.366Z,40.10
2018-12-29T08:28:59.358Z,42.70
2018-12-29T08:29:59.376Z,40.20
2018-12-29T08:30:59.335Z,41.70
2018-12-29T08:31:59.327Z,41.80
2018-12-29T08:32:59.315Z,39.30
2018-12-29T08:33:59.320Z,37.40
2018-12-29T08:34:59.295Z,38.30
2018-12-29T08:35:59.340Z,36.20
2018-12-29T08:36:59.270Z,36.40
2018-12-29T08:37:59.261Z,38.70
2018-12-29T08:38:59.252Z,37.30
2018-12-29T08:39:59.237Z,37.10
2018-12-29T08:40:59.230Z,39.40
2018-12-29T08:41:59.247Z,39.60
2018-12-29T08:42:59.208Z,39.00
2018-12-29T08:43:59.224Z,38.60
2018-12-29T08:44:59.188Z,36.90
2018-12-29T08:45:59.178Z,39.10
2018-12-29T08:47:04.480Z,38.40
2018-12-29T08:48:00.161Z,35.30
2018-12-29T08:48:59.146Z,35.00
2018-12-29T08:49:59.204Z,36.40
2018-12-29T08:50:59.117Z,36.80
2018-12-29T08:51:59.150Z,36.20
2018-12-29T08:52:59.100Z,35.00
2018-12-29T08:53:59.086Z,38.70
2018-12-29T08:54:59.081Z,37.10
2018-12-29T08:55:59.100Z,37.40
2018-12-29T08:56:59.054Z,37.00
2018-12-29T08:57:59.045Z,35.80
2018-12-29T08:58:59.058Z,36.00
2018-12-29T08:59:59.019Z,37.70
2018-12-29T09:00:59.049Z,38.30
2018-12-29T09:01:59.016Z,37.60
2018-12-29T09:02:58.993Z,40.60
2018-12-29T09:03:59.088Z,39.30
2018-12-29T09:04:58.995Z,38.60
2018-12-29T09:05:58.985Z,38.80
2018-12-29T09:06:58.995Z,38.10
2018-12-29T09:07:58.949Z,37.10
2018-12-29T09:08:58.998Z,37.40
2018-12-29T09:09:58.958Z,39.60
2018-12-29T09:10:58.910Z,38.80
2018-12-29T09:11:58.891Z,36.50
2018-12-29T09:12:58.965Z,39.70
2018-12-29T09:13:58.870Z,36.60
2018-12-29T09:14:58.940Z,36.40
2018-12-29T09:15:58.917Z,37.20
2018-12-29T09:16:58.842Z,36.10
2018-12-29T09:17:58.832Z,37.60
2018-12-29T09:18:58.868Z,36.50
2018-12-29T09:19:58.814Z,33.80
2018-12-29T09:20:58.799Z,37.90
2018-12-29T09:21:58.784Z,39.30
2018-12-29T09:22:58.770Z,40.00
2018-12-29T09:23:58.765Z,37.90
2018-12-29T09:24:58.793Z,38.20
2018-12-29T09:25:58.757Z,38.60
2018-12-29T09:26:58.753Z,34.70
2018-12-29T09:27:58.752Z,36.60
2018-12-29T09:28:58.732Z,38.50
2018-12-29T09:29:58.698Z,35.90
2018-12-29T09:30:58.713Z,34.90
2018-12-29T09:31:58.681Z,33.70
2018-12-29T09:32:58.677Z,35.40
2018-12-29T09:33:58.707Z,35.70
2018-12-29T09:34:58.686Z,38.80
2018-12-29T09:35:58.639Z,33.80
2018-12-29T09:36:58.627Z,36.40
2018-12-29T09:37:58.635Z,36.90
2018-12-29T09:38:58.605Z,32.30
2018-12-29T09:39:58.625Z,34.00
2018-12-29T09:40:58.591Z,31.00
2018-12-29T09:41:58.564Z,34.50
2018-12-29T09:42:58.578Z,37.50
2018-12-29T09:43:58.566Z,35.80
2018-12-29T09:44:58.616Z,36.70
2018-12-29T09:45:58.543Z,34.50
2018-12-29T09:46:58.516Z,33.90
2018-12-29T09:47:58.529Z,34.30
2018-12-29T09:48:58.507Z,34.90
2018-12-29T09:49:58.535Z,35.10
2018-12-29T09:50:58.467Z,33.40
2018-12-29T09:51:58.466Z,34.90
2018-12-29T09:52:58.481Z,35.30
2018-12-29T09:53:58.449Z,34.60
2018-12-29T09:54:58.427Z,33.90
2018-12-29T09:55:58.488Z,35.30
2018-12-29T09:56:58.424Z,32.40
2018-12-29T09:57:58.394Z,30.90
2018-12-29T09:58:58.389Z,33.90
2018-12-29T09:59:58.383Z,33.50
2018-12-29T10:00:58.370Z,33.90
2018-12-29T10:01:58.393Z,34.70
2018-12-29T10:02:58.341Z,34.60
2018-12-29T10:03:58.335Z,33.30
2018-12-29T10:04:58.366Z,32.80
2018-12-29T10:05:58.309Z,30.50
2018-12-29T10:06:58.303Z,32.70
2018-12-29T10:07:58.297Z,33.70
2018-12-29T10:08:58.273Z,32.50
2018-12-29T10:09:58.275Z,34.50
2018-12-29T10:10:58.307Z,36.10
2018-12-29T10:11:58.244Z,36.10
2018-12-29T10:12:58.233Z,34.70
2018-12-29T10:13:58.282Z,33.50
2018-12-29T10:14:58.218Z,33.10
2018-12-29T10:15:58.213Z,34.70
2018-12-29T10:16:58.258Z,34.00
2018-12-29T10:17:58.179Z,35.70
2018-12-29T10:18:58.166Z,32.30
2018-12-29T10:19:58.158Z,30.30
2018-12-29T10:20:58.155Z,32.30
2018-12-29T10:21:58.145Z,33.00
2018-12-29T10:22:58.160Z,34.00
2018-12-29T10:23:58.119Z,32.50
2018-12-29T10:24:58.126Z,31.90
2018-12-29T10:25:58.109Z,32.80
2018-12-29T10:26:58.089Z,31.70
2018-12-29T10:27:58.159Z,30.10
2018-12-29T10:28:58.078Z,33.50
2018-12-29T10:29:58.071Z,34.70
2018-12-29T10:30:58.044Z,31.00
2018-12-29T10:31:58.067Z,31.70
2018-12-29T10:32:58.044Z,31.60
2018-12-29T10:33:58.315Z,29.40
2018-12-29T10:34:58.038Z,33.40
2018-12-29T10:35:58.011Z,31.90
2018-12-29T10:36:57.974Z,29.40
2018-12-29T10:37:57.969Z,30.10
2018-12-29T10:38:57.960Z,30.50
2018-12-29T10:39:57.984Z,28.00
2018-12-29T10:40:57.942Z,31.70
2018-12-29T10:41:57.944Z,31.40
2018-12-29T10:42:57.915Z,29.90
2018-12-29T10:43:57.912Z,29.40
2018-12-29T10:44:57.898Z,30.60
2018-12-29T10:45:57.922Z,27.90
2018-12-29T10:46:57.865Z,29.20
2018-12-29T10:47:57.877Z,28.60
2018-12-29T10:48:57.844Z,28.70
2018-12-29T10:49:57.847Z,29.40
2018-12-29T10:50:57.829Z,31.10
2018-12-29T10:51:57.846Z,29.20
2018-12-29T10:52:57.812Z,27.90
2018-12-29T10:53:57.811Z,29.50
2018-12-29T10:54:57.802Z,29.90
2018-12-29T10:55:57.791Z,32.20
2018-12-29T10:56:57.764Z,30.60
2018-12-29T10:57:57.823Z,34.20
2018-12-29T10:58:57.760Z,29.80
2018-12-29T10:59:57.771Z,30.50
2018-12-29T11:00:57.732Z,30.60
2018-12-29T11:01:57.716Z,31.00
2018-12-29T11:02:57.742Z,28.20
2018-12-29T11:03:57.694Z,27.40
2018-12-29T11:04:57.677Z,28.90
2018-12-29T11:05:57.662Z,29.70
2018-12-29T11:06:57.664Z,29.90
2018-12-29T11:07:57.650Z,27.80
2018-12-29T11:08:57.656Z,31.00
2018-12-29T11:09:57.618Z,28.00
2018-12-29T11:10:57.612Z,27.90
2018-12-29T11:11:57.651Z,28.40
2018-12-29T11:12:57.608Z,29.50
2018-12-29T11:13:57.619Z,29.10
2018-12-29T11:14:57.560Z,29.80
2018-12-29T11:15:57.564Z,29.60
2018-12-29T11:16:57.556Z,26.20
2018-12-29T11:17:57.531Z,28.70
2018-12-29T11:18:57.557Z,28.00
2018-12-29T11:19:57.541Z,27.90
2018-12-29T11:20:57.560Z,26.00
2018-12-29T11:21:57.495Z,29.30
2018-12-29T11:22:57.480Z,27.40
2018-12-29T11:23:57.468Z,28.60
2018-12-29T11:24:57.456Z,25.80
2018-12-29T11:25:57.446Z,26.90
2018-12-29T11:26:57.465Z,27.00
2018-12-29T11:27:57.433Z,27.60
2018-12-29T11:28:57.425Z,27.10
2018-12-29T11:29:57.403Z,25.70
2018-12-29T11:30:57.395Z,26.50
2018-12-29T11:31:57.409Z,24.70
2018-12-29T11:32:57.421Z,26.50
2018-12-29T11:33:57.366Z,26.20
2018-12-29T11:34:57.401Z,26.60
2018-12-29T11:35:57.370Z,27.30
2018-12-29T11:36:57.340Z,28.00
2018-12-29T11:37:57.318Z,23.90
2018-12-29T11:38:57.311Z,26.80
2018-12-29T11:39:57.352Z,27.50
2018-12-29T11:40:57.292Z,27.10
2018-12-29T11:41:57.280Z,27.70
2018-12-29T11:42:57.294Z,28.00
2018-12-29T11:43:57.282Z,24.40
2018-12-29T11:44:57.243Z,26.50
2018-12-29T11:45:57.282Z,26.50
2018-12-29T11:46:57.223Z,24.80
2018-12-29T11:47:57.210Z,26.30
2018-12-29T11:48:57.223Z,25.30
2018-12-29T11:49:57.252Z,24.80
2018-12-29T11:50:57.189Z,23.90
2018-12-29T11:51:57.188Z,27.50
2018-12-29T11:52:57.158Z,24.50
2018-12-29T11:53:57.174Z,25.90
2018-12-29T11:54:57.141Z,27.00
2018-12-29T11:55:57.187Z,25.20
2018-12-29T11:56:57.147Z,27.30
2018-12-29T11:57:57.108Z,28.10
2018-12-29T11:58:57.091Z,27.90
2018-12-29T11:59:57.106Z,26.30
2018-12-29T12:00:57.072Z,28.00
2018-12-29T12:01:57.091Z,26.10
2018-12-29T12:02:57.058Z,25.70
2018-12-29T12:03:57.041Z,26.10
2018-12-29T12:04:57.022Z,27.50
2018-12-29T12:05:57.021Z,27.80
2018-12-29T12:06:57.003Z,27.40
2018-12-29T12:07:57.020Z,27.50
2018-12-29T12:08:57.017Z,27.30
2018-12-29T12:09:57.004Z,28.20
2018-12-29T12:10:56.971Z,25.70
2018-12-29T12:11:56.955Z,25.00
2018-12-29T12:12:56.996Z,26.50
2018-12-29T12:13:56.941Z,26.60
2018-12-29T12:14:56.921Z,26.40
2018-12-29T12:15:56.915Z,24.50
2018-12-29T12:16:56.902Z,22.90
2018-12-29T12:17:57.655Z,27.30
2018-12-29T12:18:56.983Z,26.30
2018-12-29T12:19:56.868Z,25.10
2018-12-29T12:20:56.906Z,27.10
2018-12-29T12:21:56.843Z,27.70
2018-12-29T12:22:56.837Z,26.70
2018-12-29T12:23:56.827Z,27.20
2018-12-29T12:24:56.813Z,26.10
2018-12-29T12:25:56.813Z,26.10
2018-12-29T12:26:56.937Z,27.80
2018-12-29T12:27:56.781Z,26.70
2018-12-29T12:28:56.819Z,26.40
2018-12-29T12:29:56.776Z,25.20
2018-12-29T12:30:56.779Z,25.80
2018-12-29T12:31:56.739Z,25.70
2018-12-29T12:32:56.782Z,23.70
2018-12-29T12:33:56.714Z,23.00
2018-12-29T12:34:56.699Z,24.50
2018-12-29T12:35:56.692Z,24.20
2018-12-29T12:36:56.743Z,26.10
2018-12-29T12:37:56.737Z,26.40
2018-12-29T12:38:56.664Z,25.60
2018-12-29T12:39:56.648Z,26.60
2018-12-29T12:40:56.654Z,24.30
2018-12-29T12:41:56.630Z,24.30
2018-12-29T12:42:56.625Z,22.50
2018-12-29T12:43:56.653Z,23.80
2018-12-29T12:44:56.633Z,23.00
2018-12-29T12:45:56.582Z,22.90
2018-12-29T12:46:56.606Z,24.90
2018-12-29T12:47:56.557Z,21.50
2018-12-29T12:48:56.551Z,22.30
2018-12-29T12:49:56.586Z,22.40
2018-12-29T12:50:56.542Z,24.80
2018-12-29T12:51:56.517Z,24.40